Time;durP1;ratioP1;P1;durP2;ratioP2;P2;SDS_P1;SDS_P2;PMS_P1;PMS_P2;Temp;Humidity;BMP_temperature;BMP_pressure;BME280_temperature;BME280_humidity;BME280_pressure;Samples;Min_cycle;Max_cycle;Signal;HPM_P1;HPM_P2
2021/10/24 00:01:19;;;;;;;11.48;7.50;;;;;;;8.02;75.43;96470.91;5025626;28;20026;-72
2021/10/24 00:03:44;;;;;;;10.25;7.28;;;;;;;7.99;75.78;96472.03;5026125;28;20515;-72
2021/10/24 00:06:10;;;;;;;10.00;7.00;;;;;;;7.91;75.64;96466.53;5025554;28;20072;-71
2021/10/24 00:08:35;;;;;;;9.90;7.43;;;;;;;7.90;75.87;96470.16;5025876;28;20025;-73
2021/10/24 00:11:01;;;;;;;12.45;7.70;;;;;;;7.93;75.88;96469.91;5024987;28;20132;-72
2021/10/24 00:13:29;;;;;;;11.40;8.30;;;;;;;7.91;76.59;96466.53;5025570;28;20025;-72
2021/10/24 00:15:54;;;;;;;11.57;7.40;;;;;;;7.92;76.05;96478.88;5026199;28;20103;-72
2021/10/24 00:18:20;;;;;;;11.63;8.07;;;;;;;7.87;76.00;96476.63;5024215;28;20021;-72
2021/10/24 00:20:45;;;;;;;10.98;7.53;;;;;;;7.93;75.74;96477.06;5025939;28;20022;-72
2021/10/24 00:23:12;;;;;;;10.63;7.50;;;;;;;7.94;75.96;96476.09;5025525;28;20109;-72
2021/10/24 00:25:38;;;;;;;12.80;7.55;;;;;;;7.98;75.74;96486.34;5025535;28;20029;-71
2021/10/24 00:28:04;;;;;;;12.07;7.60;;;;;;;7.95;75.64;96483.97;5028342;28;20052;-73
2021/10/24 00:30:30;;;;;;;11.90;7.63;;;;;;;7.93;76.17;96485.94;5029307;28;20431;-74
2021/10/24 00:32:56;;;;;;;11.55;7.85;;;;;;;7.93;76.30;96491.28;5029681;28;20025;-72
2021/10/24 00:35:21;;;;;;;12.63;8.20;;;;;;;7.89;76.39;96479.16;5027895;28;20028;-72
2021/10/24 00:37:47;;;;;;;13.32;9.20;;;;;;;7.90;75.96;96491.53;5028063;28;20036;-72
2021/10/24 00:40:12;;;;;;;13.70;8.80;;;;;;;7.86;76.35;96490.13;5028977;28;20030;-72
2021/10/24 00:42:48;;;;;;;14.93;8.50;;;;;;;7.83;76.37;96487.72;5028033;28;20033;-72
2021/10/24 00:45:14;;;;;;;12.82;8.55;;;;;;;7.78;76.31;96483.63;5029087;28;20422;-72
2021/10/24 00:47:39;;;;;;;14.57;8.75;;;;;;;7.77;76.51;96487.25;5029038;28;20025;-72
2021/10/24 00:50:05;;;;;;;12.63;8.60;;;;;;;7.78;76.02;96483.63;5028175;28;20036;-72
2021/10/24 00:52:30;;;;;;;12.05;8.90;;;;;;;7.76;76.38;96482.91;5027535;28;20082;-72
2021/10/24 00:54:56;;;;;;;12.73;9.60;;;;;;;7.80;76.17;96478.16;5028281;28;20017;-71
2021/10/24 00:57:21;;;;;;;14.65;9.75;;;;;;;7.76;75.97;96477.56;5028544;28;20033;-72
2021/10/24 00:59:47;;;;;;;13.73;9.50;;;;;;;7.74;76.30;96474.19;5027542;28;20122;-72
2021/10/24 01:02:13;;;;;;;15.05;9.35;;;;;;;7.76;76.36;96484.72;5027344;28;20511;-72
2021/10/24 01:04:39;;;;;;;14.88;9.70;;;;;;;7.79;75.86;96479.97;5028851;28;20017;-72
2021/10/24 01:07:05;;;;;;;14.05;8.88;;;;;;;7.82;76.04;96483.34;5028899;28;20041;-72
2021/10/24 01:09:31;;;;;;;14.15;9.07;;;;;;;7.83;76.05;96479.69;5011087;28;20028;-72
2021/10/24 01:11:57;;;;;;;14.98;9.80;;;;;;;7.90;75.28;96486.19;5011530;28;20075;-72
2021/10/24 01:14:23;;;;;;;13.88;9.40;;;;;;;7.87;75.58;96486.44;5011004;28;20029;-73
2021/10/24 01:16:51;;;;;;;13.77;8.82;;;;;;;7.90;75.17;96486.19;5027268;28;20041;-71
2021/10/24 01:19:17;;;;;;;12.75;9.18;;;;;;;7.93;75.22;96482.41;5010972;28;20025;-73
2021/10/24 01:21:42;;;;;;;13.65;9.27;;;;;;;7.89;74.87;96485.34;5028560;28;20426;-72
2021/10/24 01:24:08;;;;;;;13.52;8.60;;;;;;;7.91;74.85;96486.03;5028593;28;20550;-73
2021/10/24 01:26:34;;;;;;;13.32;9.45;;;;;;;7.89;74.84;96487.16;5028559;28;20041;-74
2021/10/24 01:29:00;;;;;;;13.85;9.00;;;;;;;7.85;74.92;96488.44;5027333;28;20030;-72
2021/10/24 01:31:25;;;;;;;13.38;9.15;;;;;;;7.86;74.90;96474.09;5028325;28;20029;-71
2021/10/24 01:33:51;;;;;;;13.13;8.15;;;;;;;7.89;75.03;96473.81;5028383;28;20033;-71
2021/10/24 01:36:16;;;;;;;16.00;9.52;;;;;;;7.85;74.63;96477.75;5027825;28;20056;-72
2021/10/24 01:38:46;;;;;;;17.55;9.43;;;;;;;7.87;74.92;96476.63;5026313;28;20026;-72
2021/10/24 01:41:12;;;;;;;13.60;9.60;;;;;;;7.79;75.14;96485.31;5010311;28;20028;-73
2021/10/24 01:43:37;;;;;;;18.02;9.43;;;;;;;7.83;75.33;96482.38;5010696;28;20026;-72
2021/10/24 01:46:03;;;;;;;16.67;10.38;;;;;;;7.80;75.22;96486.16;5026832;28;20021;-73
2021/10/24 01:48:29;;;;;;;15.93;10.18;;;;;;;7.73;75.75;96491.19;5010387;28;20129;-73
2021/10/24 01:50:54;;;;;;;15.13;8.68;;;;;;;7.78;75.09;96483.63;5028331;28;20025;-73
2021/10/24 01:53:25;;;;;;;15.52;10.25;;;;;;;7.73;74.78;96488.50;5009854;28;20120;-73
2021/10/24 01:55:51;;;;;;;18.23;10.93;;;;;;;7.72;75.06;96485.97;5010374;28;20029;-73
2021/10/24 01:58:16;;;;;;;16.48;10.85;;;;;;;7.65;75.23;96491.84;5010079;28;20028;-73
2021/10/24 02:00:43;;;;;;;16.95;11.00;;;;;;;7.64;74.99;96497.31;5010526;28;20029;-74
2021/10/24 02:03:09;;;;;;;16.05;10.63;;;;;;;7.63;75.38;96487.59;5027568;28;20025;-74
2021/10/24 02:05:36;;;;;;;16.45;10.52;;;;;;;7.65;74.89;96494.53;5009997;28;20507;-74
2021/10/24 02:08:02;;;;;;;17.58;11.88;;;;;;;7.63;74.96;96487.59;5026682;28;20396;-72
2021/10/24 02:10:27;;;;;;;17.52;11.95;;;;;;;7.59;75.04;96495.06;5027729;28;20558;-75
2021/10/24 02:12:52;;;;;;;19.75;11.48;;;;;;;7.53;75.08;96492.88;5026564;28;20029;-73
2021/10/24 02:15:18;;;;;;;19.17;11.63;;;;;;;7.50;75.53;96498.50;5025987;28;20025;-75
2021/10/24 02:17:43;;;;;;;17.38;11.40;;;;;;;7.52;75.42;96499.22;5010163;28;20032;-76
2021/10/24 02:20:09;;;;;;;15.63;10.60;;;;;;;7.55;75.32;96498.94;5009217;28;20442;-73
2021/10/24 02:22:35;;;;;;;16.30;11.15;;;;;;;7.61;74.48;96508.28;4993707;28;20215;-75
2021/10/24 02:25:01;;;;;;;18.30;10.93;;;;;;;7.53;74.68;96509.75;5026248;28;20075;-74
2021/10/24 02:27:26;;;;;;;19.42;11.57;;;;;;;7.61;74.85;96513.63;5026017;28;20022;-72
2021/10/24 02:29:52;;;;;;;18.35;12.00;;;;;;;7.60;74.36;96512.75;5027823;28;20037;-75
2021/10/24 02:32:18;;;;;;;17.80;11.57;;;;;;;7.61;74.78;96505.59;5025321;28;20091;-73
2021/10/24 02:34:43;;;;;;;17.52;12.00;;;;;;;7.62;74.78;96512.63;5027404;28;20033;-72
2021/10/24 02:37:09;;;;;;;19.30;11.43;;;;;;;7.65;74.52;96513.22;5025400;28;20119;-73
2021/10/24 02:39:34;;;;;;;20.42;12.63;;;;;;;7.69;74.35;96512.94;5027432;28;20026;-73
2021/10/24 02:41:59;;;;;;;20.60;12.38;;;;;;;7.66;74.29;96508.69;5026800;28;20032;-74
2021/10/24 02:44:25;;;;;;;20.80;11.93;;;;;;;7.71;74.16;96511.81;5027119;28;20034;-74
2021/10/24 02:46:51;;;;;;;17.33;12.63;;;;;;;7.68;74.02;96522.78;5009660;28;20025;-73
2021/10/24 02:49:16;;;;;;;20.60;12.27;;;;;;;7.68;74.77;96520.09;5008614;28;20480;-73
2021/10/24 02:51:43;;;;;;;20.27;12.27;;;;;;;7.74;73.94;96519.56;5026132;28;20033;-73
2021/10/24 02:54:08;;;;;;;22.77;12.25;;;;;;;7.76;74.22;96522.97;5026301;28;20554;-73
2021/10/24 02:56:34;;;;;;;16.73;11.68;;;;;;;7.84;73.78;96524.13;5026907;28;20087;-73
2021/10/24 02:58:59;;;;;;;17.17;11.23;;;;;;;7.87;73.38;96534.53;5026792;28;20032;-74
2021/10/24 03:01:25;;;;;;;18.25;11.82;;;;;;;7.87;73.75;96534.53;5026777;28;20476;-74
2021/10/24 03:03:50;;;;;;;19.75;12.00;;;;;;;7.85;73.34;96537.34;5026875;28;20091;-75
2021/10/24 03:06:15;;;;;;;20.95;11.80;;;;;;;7.87;73.06;96529.19;5026226;28;20045;-72
2021/10/24 03:08:41;;;;;;;17.45;11.45;;;;;;;7.89;72.72;96529.91;5027277;28;20108;-74
2021/10/24 03:11:06;;;;;;;19.52;11.80;;;;;;;7.91;72.86;96527.97;5026248;28;20026;-75
2021/10/24 03:13:32;;;;;;;18.55;11.95;;;;;;;7.90;72.86;96535.13;5025500;28;20022;-75
2021/10/24 03:15:58;;;;;;;17.23;11.50;;;;;;;7.90;72.62;96535.13;5026199;28;20527;-75
2021/10/24 03:18:23;;;;;;;15.85;11.07;;;;;;;7.96;72.56;96541.78;5026548;28;20384;-73
2021/10/24 03:20:49;;;;;;;17.52;11.27;;;;;;;7.92;73.39;96540.31;5025092;28;20037;-73
2021/10/24 03:23:14;;;;;;;15.48;10.38;;;;;;;7.94;72.25;96533.03;5026425;28;20042;-74
2021/10/24 03:25:40;;;;;;;19.00;11.02;;;;;;;7.95;71.66;96526.69;5026638;28;20021;-72
2021/10/24 03:28:05;;;;;;;18.00;11.18;;;;;;;7.95;71.70;96539.22;5024990;28;20021;-72
2021/10/24 03:30:31;;;;;;;17.85;11.30;;;;;;;7.91;71.99;96535.97;5026659;28;20026;-74
2021/10/24 03:32:56;;;;;;;16.65;10.45;;;;;;;7.98;71.84;96534.44;4992327;28;20033;-74
2021/10/24 03:35:22;;;;;;;15.60;10.60;;;;;;;7.93;71.60;96539.38;4992382;28;20504;-72
2021/10/24 03:37:47;;;;;;;15.63;11.38;;;;;;;7.96;71.84;96541.78;5008216;28;20394;-74
2021/10/24 03:40:13;;;;;;;15.75;10.93;;;;;;;7.99;71.15;96541.50;5026480;28;20029;-73
2021/10/24 03:42:38;;;;;;;17.55;10.30;;;;;;;7.98;71.45;96546.97;5025211;28;20041;-74
2021/10/24 03:45:05;;;;;;;16.23;10.43;;;;;;;7.94;71.82;96541.06;5026201;28;20021;-72
2021/10/24 03:47:30;;;;;;;14.27;10.45;;;;;;;7.92;71.66;96537.66;5026329;28;20021;-73
2021/10/24 03:49:55;;;;;;;16.52;11.07;;;;;;;7.93;72.13;96542.03;5024623;28;20239;-76
2021/10/24 03:52:21;;;;;;;19.63;10.80;;;;;;;7.90;72.22;96539.59;5026096;28;20053;-74
2021/10/24 03:54:46;;;;;;;18.83;11.02;;;;;;;7.93;71.78;96541.19;5024471;28;20079;-75
2021/10/24 03:57:12;;;;;;;18.13;11.27;;;;;;;7.89;72.02;96553.94;5025043;28;20036;-73
2021/10/24 03:59:37;;;;;;;18.73;11.10;;;;;;;7.87;71.84;96547.88;5025640;28;20029;-74
2021/10/24 04:02:03;;;;;;;22.08;12.05;;;;;;;7.86;71.61;96551.53;5029793;28;20032;-73
2021/10/24 04:04:29;;;;;;;16.83;11.27;;;;;;;7.83;71.79;96544.66;5028894;28;20030;-74
2021/10/24 04:06:54;;;;;;;19.88;11.77;;;;;;;7.81;71.75;96538.59;5029622;28;20050;-74
2021/10/24 04:09:20;;;;;;;20.30;12.55;;;;;;;7.81;71.37;96540.41;5012662;28;20111;-73
2021/10/24 04:11:45;;;;;;;18.58;12.50;;;;;;;7.85;71.21;96540.00;5028382;28;20446;-72
2021/10/24 04:14:11;;;;;;;20.00;12.15;;;;;;;7.78;71.84;96544.19;5028862;28;20568;-72
2021/10/24 04:16:36;;;;;;;16.20;11.43;;;;;;;7.81;71.61;96541.25;5027857;28;20021;-73
2021/10/24 04:19:02;;;;;;;17.92;11.98;;;;;;;7.81;70.98;96529.72;5028915;28;20052;-73
2021/10/24 04:21:27;;;;;;;21.45;11.63;;;;;;;7.78;71.32;96534.38;5028114;28;20026;-73
2021/10/24 04:23:53;;;;;;;17.10;11.07;;;;;;;7.79;71.10;96538.72;5028475;28;20025;-73
2021/10/24 04:26:18;;;;;;;17.73;10.70;;;;;;;7.74;71.24;96535.59;5029957;28;20037;-72
2021/10/24 04:28:44;;;;;;;15.90;10.63;;;;;;;7.74;71.33;96527.59;5029257;28;20037;-73
2021/10/24 04:31:09;;;;;;;16.02;10.60;;;;;;;7.76;71.01;96528.31;5029869;28;20029;-75
2021/10/24 04:33:35;;;;;;;15.00;10.75;;;;;;;7.69;70.84;96529.81;5028885;28;20030;-72
2021/10/24 04:36:00;;;;;;;18.10;11.15;;;;;;;7.69;70.47;96532.47;5028371;28;20036;-72
2021/10/24 04:38:28;;;;;;;16.48;10.25;;;;;;;7.72;70.38;96532.19;5027705;28;20034;-74
2021/10/24 04:40:53;;;;;;;19.80;11.68;;;;;;;7.71;70.59;96541.19;5028187;28;20030;-74
2021/10/24 04:43:19;;;;;;;15.05;10.00;;;;;;;7.74;70.07;96537.41;5028379;28;20030;-76
2021/10/24 04:45:44;;;;;;;15.15;10.10;;;;;;;7.76;70.60;96540.81;5027739;28;20025;-76
2021/10/24 04:48:10;;;;;;;15.93;11.63;;;;;;;7.73;70.60;96541.94;5029838;28;20018;-73
2021/10/24 04:50:35;;;;;;;17.48;10.60;;;;;;;7.69;69.82;96550.34;5011002;28;20026;-74
2021/10/24 04:53:06;;;;;;;17.95;10.63;;;;;;;7.74;69.73;96545.41;5028229;28;20026;-75
2021/10/24 04:55:31;;;;;;;15.02;10.10;;;;;;;7.74;69.46;96556.97;5011136;28;20152;-75
2021/10/24 04:57:57;;;;;;;16.35;10.82;;;;;;;7.73;69.53;96549.94;5027799;28;20033;-74
2021/10/24 05:00:22;;;;;;;18.40;10.10;;;;;;;7.66;69.52;96567.44;5027640;28;20084;-74
2021/10/24 05:02:47;;;;;;;15.57;9.55;;;;;;;7.61;69.50;96567.00;5027701;28;20076;-75
2021/10/24 05:05:13;;;;;;;14.70;10.35;;;;;;;7.60;69.41;96559.97;5027856;28;20029;-76
2021/10/24 05:07:39;;;;;;;16.58;10.90;;;;;;;7.57;69.61;96578.91;5027175;28;20033;-73
2021/10/24 05:10:04;;;;;;;14.38;10.43;;;;;;;7.57;69.46;96566.41;5028151;28;20037;-72
2021/10/24 05:12:30;;;;;;;15.57;10.50;;;;;;;7.46;69.73;96579.81;5028428;28;20025;-74
2021/10/24 05:14:55;;;;;;;14.00;9.63;;;;;;;7.40;69.40;96586.50;5028869;28;20025;-73
2021/10/24 05:17:21;;;;;;;16.30;10.65;;;;;;;7.42;69.61;96579.22;5010426;28;20476;-75
2021/10/24 05:19:46;;;;;;;16.15;10.65;;;;;;;7.33;70.07;96580.00;5027428;28;20514;-75
2021/10/24 05:22:12;;;;;;;20.80;10.93;;;;;;;7.40;69.91;96583.84;5028912;28;20029;-73
2021/10/24 05:24:37;;;;;;;17.33;10.65;;;;;;;7.38;69.85;96585.81;5027229;28;20458;-77
2021/10/24 05:27:03;;;;;;;15.18;10.27;;;;;;;7.44;69.89;96598.63;5027587;28;20029;-74
2021/10/24 05:29:28;;;;;;;17.95;10.50;;;;;;;7.48;69.40;96602.72;5028710;28;20134;-74
2021/10/24 05:31:54;;;;;;;15.98;10.63;;;;;;;7.48;70.03;96604.56;5010842;28;20018;-73
2021/10/24 05:34:19;;;;;;;16.23;10.82;;;;;;;7.44;69.90;96608.47;5028107;28;20032;-73
2021/10/24 05:36:45;;;;;;;15.35;10.27;;;;;;;7.50;69.56;96607.94;5028777;28;20029;-74
2021/10/24 05:39:10;;;;;;;16.25;9.93;;;;;;;7.55;68.69;96611.09;5011762;28;20113;-74
2021/10/24 05:41:37;;;;;;;15.13;10.50;;;;;;;7.55;68.95;96613.75;5027964;28;20029;-74
2021/10/24 05:44:02;;;;;;;15.98;10.95;;;;;;;7.72;69.24;96617.66;5028650;28;20026;-75
2021/10/24 05:46:28;;;;;;;16.05;11.00;;;;;;;7.78;68.47;96614.50;5028415;28;20025;-74
2021/10/24 05:48:53;;;;;;;16.08;10.60;;;;;;;7.81;67.91;96618.72;5010606;28;20052;-72
2021/10/24 05:51:19;;;;;;;15.77;10.02;;;;;;;7.80;68.22;96619.72;5027805;28;20411;-74
2021/10/24 05:53:44;;;;;;;18.98;10.05;;;;;;;7.84;68.05;96630.94;5027003;28;20042;-73
2021/10/24 05:56:10;;;;;;;17.05;10.98;;;;;;;8.08;67.41;96621.81;5009588;28;20040;-75
2021/10/24 05:58:35;;;;;;;15.63;10.63;;;;;;;8.23;66.68;96622.34;5010540;28;20101;-76
2021/10/24 06:01:01;;;;;;;16.38;10.98;;;;;;;8.13;67.01;96624.94;5009980;28;20041;-72
2021/10/24 06:03:26;;;;;;;15.48;9.85;;;;;;;8.19;67.20;96628.94;5027984;28;20025;-74
2021/10/24 06:05:52;;;;;;;13.85;9.95;;;;;;;8.10;66.95;96635.91;5010190;28;20053;-74
2021/10/24 06:08:21;;;;;;;20.08;10.02;;;;;;;8.23;66.43;96633.88;5027420;28;20033;-73
2021/10/24 06:10:48;;;;;;;15.25;10.02;;;;;;;8.32;65.98;96634.91;5027964;28;20026;-74
2021/10/24 06:13:13;;;;;;;14.68;9.07;;;;;;;8.42;64.60;96632.28;5009597;28;20057;-73
2021/10/24 06:15:39;;;;;;;15.23;9.70;;;;;;;8.43;64.81;96636.63;5026466;28;20037;-72
2021/10/24 06:18:06;;;;;;;16.23;10.07;;;;;;;8.51;64.75;96635.97;5025855;28;20033;-73
2021/10/24 06:20:31;;;;;;;13.63;9.23;;;;;;;8.64;64.21;96633.13;4993889;28;20056;-74
2021/10/24 06:22:57;;;;;;;13.63;9.55;;;;;;;8.76;63.85;96631.16;5009456;28;20474;-72
2021/10/24 06:25:22;;;;;;;25.45;9.82;;;;;;;8.71;64.11;96628.91;5025882;28;20447;-73
2021/10/24 06:27:48;;;;;;;17.80;9.57;;;;;;;8.77;63.03;96638.19;4993855;28;20021;-74
2021/10/24 06:30:14;;;;;;;18.60;10.00;;;;;;;9.00;62.84;96646.88;5025558;28;20550;-74
2021/10/24 06:32:39;;;;;;;13.02;9.90;;;;;;;8.72;63.40;96641.28;5026070;28;20138;-72
2021/10/24 06:35:05;;;;;;;12.90;9.13;;;;;;;8.62;64.07;96649.28;5026870;28;20472;-74
2021/10/24 06:37:38;;;;;;;15.15;9.75;;;;;;;8.62;63.15;96651.13;5027226;28;20038;-74
2021/10/24 06:40:04;;;;;;;13.45;9.52;;;;;;;8.71;62.87;96655.66;5026032;28;20499;-71
2021/10/24 06:42:29;;;;;;;15.10;9.77;;;;;;;8.81;62.72;96657.50;5025901;28;20080;-73
2021/10/24 06:44:55;;;;;;;14.80;9.57;;;;;;;8.97;63.35;96655.16;5009650;28;20021;-73
2021/10/24 06:47:20;;;;;;;15.43;9.65;;;;;;;8.94;63.82;96666.16;5026534;28;20094;-72
2021/10/24 06:49:46;;;;;;;14.27;8.70;;;;;;;8.76;62.76;96658.78;5027284;28;20029;-76
2021/10/24 06:52:11;;;;;;;15.07;9.07;;;;;;;8.64;63.43;96665.19;5026450;28;20025;-74
2021/10/24 06:54:36;;;;;;;14.00;9.32;;;;;;;8.65;63.46;96678.44;5027086;28;20025;-71
2021/10/24 06:57:02;;;;;;;13.50;8.90;;;;;;;8.53;63.00;96674.97;5026485;28;20036;-72
2021/10/24 06:59:27;;;;;;;14.00;9.07;;;;;;;8.49;63.40;96678.03;5026658;28;20097;-72
2021/10/24 07:01:53;;;;;;;15.70;9.25;;;;;;;8.41;63.54;96674.19;5027031;28;20516;-74
2021/10/24 07:04:18;;;;;;;13.90;9.15;;;;;;;8.45;63.97;96672.09;5026358;28;20229;-73
2021/10/24 07:06:44;;;;;;;16.10;9.45;;;;;;;8.41;63.45;96681.38;5026870;28;20424;-72
2021/10/24 07:09:09;;;;;;;14.77;8.98;;;;;;;8.41;63.46;96679.53;5026269;28;20034;-72
2021/10/24 07:11:35;;;;;;;14.13;9.50;;;;;;;8.34;63.31;96686.41;5026791;28;20032;-73
2021/10/24 07:14:00;;;;;;;13.65;9.18;;;;;;;8.31;62.66;96697.38;5026276;28;20412;-73
2021/10/24 07:16:26;;;;;;;15.23;9.80;;;;;;;8.23;62.38;96686.47;5026571;28;20408;-73
2021/10/24 07:18:51;;;;;;;14.45;9.85;;;;;;;8.18;62.38;96692.22;5026672;28;20492;-73
2021/10/24 07:21:17;;;;;;;16.27;9.90;;;;;;;8.09;62.34;96693.88;5026335;28;20029;-73
2021/10/24 07:23:42;;;;;;;13.73;8.68;;;;;;;8.08;61.93;96699.31;5025414;28;20029;-74
2021/10/24 07:26:08;;;;;;;15.02;9.25;;;;;;;8.04;63.01;96696.91;5026117;28;20022;-73
2021/10/24 07:28:33;;;;;;;16.00;10.10;;;;;;;8.06;62.88;96693.28;5025160;28;20030;-72
2021/10/24 07:30:59;;;;;;;16.52;9.60;;;;;;;8.31;62.66;96689.34;5024725;28;20029;-74
2021/10/24 07:33:24;;;;;;;15.07;9.15;;;;;;;8.37;62.27;96701.31;5026226;28;20036;-76
2021/10/24 07:35:49;;;;;;;12.30;8.60;;;;;;;8.26;62.10;96711.13;5025093;28;20446;-75
2021/10/24 07:38:15;;;;;;;13.63;9.15;;;;;;;8.25;62.05;96693.38;5008538;28;20568;-75
2021/10/24 07:40:46;;;;;;;14.65;9.05;;;;;;;8.24;62.51;96710.41;5008565;28;20021;-72
2021/10/24 07:43:12;;;;;;;15.45;8.93;;;;;;;8.28;62.49;96702.97;5008916;28;20026;-74
2021/10/24 07:45:38;;;;;;;12.55;8.63;;;;;;;8.46;62.54;96689.88;5026355;28;20028;-72
2021/10/24 07:48:04;;;;;;;12.73;8.98;;;;;;;8.81;61.22;96698.50;5024502;28;20018;-73
2021/10/24 07:50:30;;;;;;;14.77;8.45;;;;;;;8.69;61.04;96700.41;5008508;28;20017;-73
2021/10/24 07:52:55;;;;;;;10.55;7.90;;;;;;;8.69;60.49;96705.75;5024449;28;20061;-73
2021/10/24 07:55:21;;;;;;;12.98;8.60;;;;;;;8.83;60.60;96701.03;5026344;28;20023;-72
2021/10/24 07:57:46;;;;;;;13.40;7.88;;;;;;;9.13;59.42;96693.94;5024398;28;20025;-73
2021/10/24 08:00:12;;;;;;;11.10;7.80;;;;;;;9.34;58.25;96693.00;5024850;28;20396;-73
2021/10/24 08:02:37;;;;;;;11.27;7.55;;;;;;;9.30;57.28;96692.44;5026233;28;20554;-74
2021/10/24 08:05:04;;;;;;;10.95;7.45;;;;;;;9.35;57.73;96700.88;5026111;28;20446;-73
2021/10/24 08:07:30;;;;;;;13.77;7.20;;;;;;;9.28;57.44;96705.13;5024705;28;20618;-74
2021/10/24 08:09:55;;;;;;;9.48;6.80;;;;;;;9.28;57.14;96699.75;5008108;28;20112;-75
2021/10/24 08:12:21;;;;;;;11.38;7.30;;;;;;;9.37;57.17;96698.06;5008246;28;20037;-71
2021/10/24 08:14:47;;;;;;;11.80;7.70;;;;;;;9.58;56.33;96702.47;5024126;28;20325;-73
2021/10/24 08:17:12;;;;;;;11.63;7.43;;;;;;;9.82;56.33;96696.72;4991776;28;20637;-72
2021/10/24 08:19:39;;;;;;;10.75;7.00;;;;;;;9.64;56.30;96700.09;5025873;28;20493;-73
2021/10/24 08:22:04;;;;;;;13.38;7.28;;;;;;;9.64;56.38;96701.94;5025865;28;20038;-73
2021/10/24 08:24:30;;;;;;;8.35;6.60;;;;;;;9.74;55.96;96708.13;5024829;28;20518;-74
2021/10/24 08:26:56;;;;;;;11.95;6.78;;;;;;;9.69;54.31;96701.50;5024152;28;20037;-73
2021/10/24 08:29:21;;;;;;;8.45;6.28;;;;;;;9.60;55.42;96703.19;5024573;28;20026;-72
2021/10/24 08:31:50;;;;;;;10.55;6.13;;;;;;;9.57;55.25;96704.31;5025184;28;20037;-74
2021/10/24 08:34:18;;;;;;;10.27;6.05;;;;;;;9.47;54.81;96696.28;5024598;28;20025;-74
2021/10/24 08:36:44;;;;;;;10.70;6.65;;;;;;;9.45;55.21;96694.69;5024145;28;20032;-75
2021/10/24 08:39:10;;;;;;;11.27;6.35;;;;;;;9.62;55.71;96696.69;5024501;28;20112;-73
2021/10/24 08:41:35;;;;;;;10.27;6.22;;;;;;;9.89;54.71;96699.69;5024481;28;20038;-72
2021/10/24 08:44:02;;;;;;;15.07;7.13;;;;;;;10.00;55.08;96704.88;5007572;28;20033;-73
2021/10/24 08:46:27;;;;;;;8.55;5.63;;;;;;;10.33;53.71;96709.94;5025409;28;20171;-73
2021/10/24 08:48:53;;;;;;;10.52;6.35;;;;;;;10.37;52.77;96715.84;5027524;28;20021;-74
2021/10/24 08:51:19;;;;;;;9.48;5.82;;;;;;;10.17;52.95;96710.53;5011698;28;20033;-73
2021/10/24 08:53:45;;;;;;;11.73;6.40;;;;;;;10.06;53.53;96697.28;5027500;28;20030;-74
2021/10/24 08:56:19;;;;;;;9.07;6.03;;;;;;;10.04;53.44;96700.09;5027750;28;20537;-72
2021/10/24 08:58:45;;;;;;;8.70;6.18;;;;;;;10.05;53.04;96701.78;5028112;28;20033;-72
2021/10/24 09:01:11;;;;;;;8.38;6.15;;;;;;;10.17;53.80;96702.50;5027705;28;20029;-72
2021/10/24 09:03:37;;;;;;;9.27;6.25;;;;;;;10.20;53.46;96699.53;5011710;28;20072;-72
2021/10/24 09:06:02;;;;;;;11.55;6.25;;;;;;;10.31;52.42;96703.88;5028259;28;20053;-74
2021/10/24 09:08:28;;;;;;;8.13;5.75;;;;;;;10.37;52.49;96715.84;5027800;28;20037;-72
2021/10/24 09:10:55;;;;;;;11.60;5.97;;;;;;;10.57;52.49;96705.97;5028370;28;20503;-72
2021/10/24 09:13:27;;;;;;;8.13;5.68;;;;;;;10.75;51.54;96705.22;5011350;28;20069;-73
2021/10/24 09:15:53;;;;;;;;;;;;;;;10.88;52.12;96696.81;5027938;28;20092;-73
2021/10/24 09:18:28;;;;;;;7.05;4.93;;;;;;;11.06;52.78;96701.41;5028718;28;19921;-73
2021/10/24 09:20:54;;;;;;;7.55;5.53;;;;;;;11.13;50.63;96699.81;5027585;28;20111;-72
2021/10/24 09:23:19;;;;;;;7.47;5.78;;;;;;;11.08;50.60;96692.19;5027052;28;20427;-73
2021/10/24 09:25:49;;;;;;;7.78;5.15;;;;;;;11.19;49.89;96699.19;5010923;28;20848;-73
2021/10/24 09:28:20;;;;;;;8.02;5.13;;;;;;;11.20;49.14;96706.28;5028314;28;20028;-72
2021/10/24 09:30:57;;;;;;;8.80;5.43;;;;;;;11.23;50.10;96700.59;5027473;28;20076;-73
2021/10/24 09:33:23;;;;;;;11.55;5.65;;;;;;;11.19;49.62;96701.88;5011114;28;20061;-73
2021/10/24 09:35:50;;;;;;;8.50;5.43;;;;;;;11.30;50.98;96711.56;5026485;28;20030;-72
2021/10/24 09:38:20;;;;;;;7.22;5.15;;;;;;;11.43;49.90;96708.53;5027323;28;20037;-76
2021/10/24 09:40:48;;;;;;;10.75;5.43;;;;;;;11.57;50.51;96703.66;5026972;28;20026;-73
2021/10/24 09:43:20;;;;;;;7.97;5.43;;;;;;;11.71;48.14;96711.19;5028222;28;20113;-72
2021/10/24 09:45:55;;;;;;;6.65;5.15;;;;;;;11.75;47.66;96704.50;5028344;28;20022;-74
2021/10/24 09:48:21;;;;;;;7.13;4.65;;;;;;;11.84;47.37;96694.69;5028173;28;20040;-73
2021/10/24 09:50:51;;;;;;;10.10;5.15;;;;;;;11.84;46.93;96678.56;5027209;28;20030;-73
2021/10/24 09:53:19;;;;;;;8.88;5.30;;;;;;;11.77;47.07;96685.53;5028102;28;20029;-74
2021/10/24 09:55:58;;;;;;;8.48;5.03;;;;;;;11.84;47.27;96694.69;5026796;28;20151;-73
2021/10/24 09:58:24;;;;;;;10.02;5.45;;;;;;;11.64;47.59;96706.59;5026729;28;20103;-77
2021/10/24 10:00:49;;;;;;;7.35;4.88;;;;;;;11.53;47.82;96704.94;5028338;28;20037;-73
2021/10/24 10:03:15;;;;;;;6.30;4.45;;;;;;;11.44;47.28;96695.97;5027679;28;20114;-75
2021/10/24 10:05:40;;;;;;;6.75;4.38;;;;;;;11.59;46.93;96693.59;5027678;28;20515;-74
2021/10/24 10:08:07;;;;;;;8.40;4.53;;;;;;;11.54;47.13;96686.00;5010751;28;20404;-72
2021/10/24 10:10:32;;;;;;;6.55;4.50;;;;;;;11.57;47.04;96691.06;5026273;28;20036;-73
2021/10/24 10:13:00;;;;;;;8.13;4.80;;;;;;;11.59;46.52;96698.97;5010158;28;20021;-74
2021/10/24 10:15:35;;;;;;;8.02;4.80;;;;;;;11.66;47.18;96689.28;4993262;28;20034;-73
2021/10/24 10:18:02;;;;;;;7.47;4.30;;;;;;;11.82;47.45;96693.13;5026201;28;20033;-73
2021/10/24 10:20:29;;;;;;;5.95;4.15;;;;;;;11.95;48.91;96692.75;5010076;28;20025;-72
2021/10/24 10:23:07;;;;;;;7.45;4.97;;;;;;;11.97;48.70;96691.59;5026357;28;20484;-75
2021/10/24 10:25:34;;;;;;;5.57;4.22;;;;;;;11.99;46.79;96689.59;5010190;28;20025;-74
2021/10/24 10:28:00;;;;;;;6.20;4.18;;;;;;;11.91;45.85;96689.53;5009324;28;20052;-74
2021/10/24 10:30:38;;;;;;;7.57;4.28;;;;;;;11.82;46.42;96690.44;5026185;28;20017;-73
2021/10/24 10:33:30;;;;;;;6.65;3.60;;;;;;;11.69;45.56;96693.50;5025728;28;20029;-72
2021/10/24 10:35:56;;;;;;;5.72;3.70;;;;;;;11.63;46.49;96700.34;5025712;28;20512;-73
2021/10/24 10:38:32;;;;;;;5.35;3.40;;;;;;;11.54;46.16;96691.38;5027503;28;20032;-73
2021/10/24 10:40:58;;;;;;;7.97;4.25;;;;;;;11.63;47.37;96689.59;5009363;28;20070;-72
2021/10/24 10:43:23;;;;;;;24.10;4.85;;;;;;;11.76;47.40;96689.22;5025748;28;20432;-73
2021/10/24 10:45:53;;;;;;;8.38;4.35;;;;;;;11.85;45.98;96679.38;5009198;28;20025;-73
2021/10/24 10:48:27;;;;;;;6.45;4.10;;;;;;;11.93;45.11;96682.16;5027019;28;20037;-73
2021/10/24 10:51:00;;;;;;;8.10;3.65;;;;;;;11.80;43.71;96679.84;5027335;28;20028;-73
2021/10/24 10:53:31;;;;;;;5.57;3.53;;;;;;;11.78;44.10;96675.63;5026643;28;20025;-73
2021/10/24 10:55:57;;;;;;;4.88;3.30;;;;;;;11.84;45.51;96672.31;5027151;28;20029;-73
2021/10/24 10:58:35;;;;;;;4.82;3.47;;;;;;;11.99;45.24;96676.16;5026529;28;20399;-74
2021/10/24 11:01:01;;;;;;;5.35;3.65;;;;;;;12.03;44.38;96668.63;5027022;28;20360;-73
2021/10/24 11:03:46;;;;;;;5.57;4.03;;;;;;;12.14;44.03;96670.25;5008567;28;20495;-73
2021/10/24 11:06:32;;;;;;;6.25;3.72;;;;;;;12.25;43.56;96671.84;5026587;28;20045;-73
2021/10/24 11:08:58;;;;;;;5.68;3.67;;;;;;;12.26;43.14;96661.91;5026848;28;20030;-74
2021/10/24 11:11:45;;;;;;;5.57;3.65;;;;;;;12.35;42.48;96652.91;5026099;28;20053;-73
2021/10/24 11:14:13;;;;;;;4.90;3.30;;;;;;;12.34;42.71;96654.78;5026881;28;20064;-73
2021/10/24 11:16:39;;;;;;;6.57;3.55;;;;;;;12.32;41.61;96655.91;5026161;28;20039;-73
2021/10/24 11:19:31;;;;;;;6.25;3.47;;;;;;;12.40;42.78;96655.16;5025210;28;20022;-74
2021/10/24 11:21:58;;;;;;;4.68;3.35;;;;;;;12.41;42.06;96660.38;5026917;28;20459;-74
2021/10/24 11:24:43;;;;;;;5.65;3.58;;;;;;;12.45;41.71;96656.34;5025868;28;20057;-74
2021/10/24 11:27:10;;;;;;;4.80;3.42;;;;;;;12.54;42.29;96648.31;5026627;28;20396;-73